Time;durP1;ratioP1;P1;durP2;ratioP2;P2;SDS_P1;SDS_P2;PMS_P1;PMS_P2;Temp;Humidity;BMP_temperature;BMP_pressure;BME280_temperature;BME280_humidity;BME280_pressure;Samples;Min_cycle;Max_cycle;Signal;HPM_P1;HPM_P2
2021/12/04 00:00:21;;;;;;;40.45;21.40;;;77.20;1740.80;;;;;;5061600;28;20086;-56
2021/12/04 00:02:51;;;;;;;47.20;21.25;;;77.10;1740.80;;;;;;5086871;28;20107;-56
2021/12/04 00:05:18;;;;;;;51.15;22.98;;;77.00;1766.40;;;;;;5064232;28;20033;-56
2021/12/04 00:07:44;;;;;;;51.60;24.45;;;77.20;1843.20;;;;;;5064362;28;20369;-56
2021/12/04 00:10:16;;;;;;;55.70;25.02;;;77.30;1894.40;;;;;;5036197;28;20045;-56
2021/12/04 00:12:43;;;;;;;54.28;23.80;;;77.50;1843.20;;;;;;5056162;28;20036;-56
2021/12/04 00:15:09;;;;;;;67.35;29.55;;;77.60;1766.40;;;;;;5055695;28;20382;-56
2021/12/04 00:17:35;;;;;;;78.78;33.05;;;102.40;1689.60;;;;;;5036328;28;20036;-56
2021/12/04 00:20:02;;;;;;;90.95;37.25;;;77.60;1664.00;;;;;;5054477;28;20516;-56
2021/12/04 00:22:28;;;;;;;75.70;32.03;;;77.40;1689.60;;;;;;5054355;28;20112;-56
2021/12/04 00:24:54;;;;;;;66.20;30.00;;;77.50;1715.20;;;;;;5036291;28;20167;-56
2021/12/04 00:27:19;;;;;;;57.72;27.90;;;77.40;1715.20;;;;;;5054576;28;20024;-55
2021/12/04 00:29:45;;;;;;;57.28;28.10;;;77.30;1715.20;;;;;;5036048;28;20200;-56
2021/12/04 00:32:19;;;;;;;64.05;27.70;;;77.30;1740.80;;;;;;5054163;28;20496;-56
2021/12/04 00:34:52;;;;;;;59.85;30.33;;;77.20;1740.80;;;;;;5054216;28;20029;-56
2021/12/04 00:51:00;;;;;;;51.72;27.05;;;77.60;1740.80;;;;;;5055547;28;20114;-56
2021/12/04 00:53:26;;;;;;;57.65;29.58;;;77.60;1664.00;;;;;;5055040;28;20029;-56
2021/12/04 00:55:51;;;;;;;69.03;31.10;;;77.50;1664.00;;;;;;5055558;28;20029;-56
2021/12/04 00:58:17;;;;;;;71.60;35.08;;;77.40;1664.00;;;;;;5055328;28;20075;-56
2021/12/04 01:00:43;;;;;;;78.35;33.95;;;77.20;1715.20;;;;;;5055183;28;20497;-56
2021/12/04 01:03:09;;;;;;;69.25;32.05;;;77.10;1740.80;;;;;;5055460;28;20071;-56
2021/12/04 01:05:35;;;;;;;65.55;30.45;;;77.00;1766.40;;;;;;5055549;28;20098;-56
2021/12/04 01:08:01;;;;;;;60.15;29.45;;;76.90;1740.80;;;;;;5054324;28;20482;-56
2021/12/04 01:10:26;;;;;;;51.80;26.70;;;76.90;1740.80;;;;;;5054827;28;20037;-56
2021/12/04 01:12:53;;;;;;;58.22;28.00;;;76.80;1766.40;;;;;;5055114;28;20025;-56
2021/12/04 01:15:19;;;;;;;62.10;27.48;;;76.80;1766.40;;;;;;5055007;28;20454;-56
2021/12/04 01:17:44;;;;;;;55.55;27.60;;;52.10;1766.40;;;;;;5055053;28;20045;-56
2021/12/04 01:20:11;;;;;;;50.28;25.80;;;76.80;1817.60;;;;;;5054395;28;20060;-56
2021/12/04 01:22:37;;;;;;;52.65;26.30;;;77.00;1894.40;;;;;;5054858;28;20036;-56
2021/12/04 01:25:03;;;;;;;45.40;22.60;;;77.20;1817.60;;;;;;5054660;28;20370;-56
2021/12/04 01:27:29;;;;;;;38.72;20.85;;;77.30;1740.80;;;;;;5054674;28;20025;-56
2021/12/04 01:29:55;;;;;;;39.55;19.70;;;77.30;1689.60;;;;;;5054697;28;20035;-56
2021/12/04 01:32:20;;;;;;;33.60;19.15;;;77.40;1664.00;;;;;;5055242;28;20159;-56
2021/12/04 01:34:46;;;;;;;39.97;17.73;;;77.30;1664.00;;;;;;5054596;28;20024;-57
2021/12/04 01:37:12;;;;;;;29.50;17.25;;;77.00;1715.20;;;;;;5054408;28;20501;-56
2021/12/04 01:39:38;;;;;;;31.48;18.08;;;77.00;1740.80;;;;;;5054266;28;20378;-56
2021/12/04 01:42:04;;;;;;;29.88;16.45;;;76.90;1740.80;;;;;;5036029;28;20119;-56
2021/12/04 01:44:30;;;;;;;37.17;18.40;;;76.80;1766.40;;;;;;5053962;28;20028;-57
2021/12/04 01:46:57;;;;;;;39.67;20.15;;;52.10;1766.40;;;;;;5054475;28;20041;-56
2021/12/04 01:49:25;;;;;;;34.78;17.20;;;52.10;1766.40;;;;;;5054429;28;20025;-56
2021/12/04 01:51:51;;;;;;;26.75;14.20;;;52.00;1792.00;;;;;;5054749;28;20064;-56
2021/12/04 01:54:17;;;;;;;22.08;12.43;;;51.80;1792.00;;;;;;5054416;28;20478;-56
2021/12/04 01:56:43;;;;;;;29.67;12.25;;;51.80;1868.80;;;;;;5054216;28;20025;-56
2021/12/04 01:59:09;;;;;;;22.98;11.10;;;51.90;1971.20;;;;;;5054058;28;20025;-56
2021/12/04 02:01:35;;;;;;;18.85;9.70;;;52.10;1920.00;;;;;;5054133;28;20029;-56
2021/12/04 02:04:00;;;;;;;19.33;10.70;;;76.90;1868.80;;;;;;5052409;28;20044;-56
2021/12/04 02:06:26;;;;;;;27.50;12.70;;;77.00;1766.40;;;;;;5054108;28;20033;-56
2021/12/04 02:08:52;;;;;;;25.95;13.35;;;77.00;1689.60;;;;;;5053578;28;20053;-56
2021/12/04 02:11:18;;;;;;;28.27;14.23;;;76.90;1715.20;;;;;;5053774;28;20135;-56
2021/12/04 02:13:43;;;;;;;27.95;13.48;;;52.00;1766.40;;;;;;5054088;28;20047;-56
2021/12/04 02:16:18;;;;;;;25.75;12.35;;;51.90;1792.00;;;;;;5035937;28;20170;-56
2021/12/04 02:18:44;;;;;;;27.75;13.45;;;51.80;1792.00;;;;;;5054211;28;20029;-56
2021/12/04 02:21:10;;;;;;;23.45;11.85;;;51.80;1817.60;;;;;;5054160;28;20028;-56
2021/12/04 02:23:36;;;;;;;22.98;12.65;;;51.80;1817.60;;;;;;5053785;28;20029;-56
2021/12/04 02:26:02;;;;;;;21.35;11.77;;;51.80;1817.60;;;;;;5053223;28;20074;-57
2021/12/04 02:28:28;;;;;;;22.75;12.25;;;51.70;1817.60;;;;;;5053505;28;20036;-56
2021/12/04 02:30:54;;;;;;;24.60;12.57;;;51.70;1817.60;;;;;;5052713;28;20066;-56
2021/12/04 02:33:21;;;;;;;27.02;13.05;;;51.80;1920.00;;;;;;5053912;28;20023;-56
2021/12/04 02:35:53;;;;;;;28.58;14.93;;;51.90;1996.80;;;;;;5053929;28;20025;-57
2021/12/04 02:38:25;;;;;;;28.85;14.48;;;52.10;1894.40;;;;;;5053648;28;20029;-57
2021/12/04 02:40:54;;;;;;;28.42;14.48;;;76.80;1766.40;;;;;;5053565;28;20100;-56
2021/12/04 02:43:20;;;;;;;27.27;14.50;;;76.90;1715.20;;;;;;5053995;28;20063;-56
2021/12/04 02:45:45;;;;;;;29.58;14.82;;;76.80;1715.20;;;;;;5053675;28;20033;-56
2021/12/04 02:48:12;;;;;;;33.17;14.55;;;52.00;1715.20;;;;;;5035221;28;20106;-56
2021/12/04 02:50:38;;;;;;;33.90;15.35;;;51.70;1740.80;;;;;;5053724;28;20033;-56
2021/12/04 02:53:04;;;;;;;31.27;15.82;;;51.70;1792.00;;;;;;5053347;28;20017;-56
2021/12/04 02:55:30;;;;;;;33.03;17.52;;;51.60;1792.00;;;;;;5053523;28;20351;-57
2021/12/04 02:57:56;;;;;;;30.13;14.70;;;51.50;1792.00;;;;;;5053431;28;20351;-56
2021/12/04 03:00:25;;;;;;;27.17;13.85;;;51.60;1817.60;;;;;;5053262;28;20033;-56
2021/12/04 03:02:51;;;;;;;27.50;14.18;;;51.50;1792.00;;;;;;5053578;28;20424;-57
2021/12/04 03:05:23;;;;;;;25.42;13.45;;;51.40;1792.00;;;;;;5053435;28;20024;-56
2021/12/04 03:07:53;;;;;;;28.42;14.70;;;51.40;1792.00;;;;;;5053101;28;20063;-55
2021/12/04 03:10:20;;;;;;;36.15;17.10;;;51.40;1817.60;;;;;;5053300;28;20051;-56
2021/12/04 03:12:46;;;;;;;34.78;14.77;;;51.50;1894.40;;;;;;5053042;28;20375;-56
2021/12/04 03:15:12;;;;;;;32.30;16.35;;;51.70;1945.60;;;;;;5035405;28;20075;-56
2021/12/04 03:17:38;;;;;;;29.55;15.40;;;51.80;1843.20;;;;;;5053173;28;20035;-56
2021/12/04 03:20:05;;;;;;;27.70;14.13;;;51.90;1766.40;;;;;;5053361;28;20025;-56
2021/12/04 03:22:31;;;;;;;31.90;15.32;;;51.90;1689.60;;;;;;5053095;28;20025;-56
2021/12/04 03:24:58;;;;;;;30.00;14.98;;;51.90;1740.80;;;;;;5053313;28;20036;-56
2021/12/04 03:27:25;;;;;;;26.70;15.32;;;51.80;1715.20;;;;;;5053181;28;20104;-56
2021/12/04 03:29:59;;;;;;;28.43;14.73;;;51.50;1740.80;;;;;;5053036;28;20056;-56
2021/12/04 03:42:59;;;;;;;35.80;16.13;;;51.20;1817.60;;;;;;5054715;28;20509;-56
2021/12/04 03:45:25;;;;;;;33.20;16.15;;;51.20;1792.00;;;;;;5056752;28;20060;-56
2021/12/04 03:47:53;;;;;;;36.17;17.52;;;26.50;1766.40;;;;;;5056180;28;20021;-56
2021/12/04 03:50:19;;;;;;;37.08;17.00;;;51.30;1817.60;;;;;;5037972;28;20033;-55
2021/12/04 03:52:45;;;;;;;37.30;16.33;;;51.40;1920.00;;;;;;5056694;28;20486;-56
2021/12/04 03:55:12;;;;;;;33.08;17.15;;;51.60;1920.00;;;;;;5056437;28;20036;-56
2021/12/04 03:57:44;;;;;;;39.38;17.67;;;51.70;1817.60;;;;;;5056498;28;20119;-56
2021/12/04 04:00:12;;;;;;;39.05;17.88;;;51.80;1740.80;;;;;;5056306;28;20116;-56
2021/12/04 04:02:38;;;;;;;35.10;17.40;;;51.80;1715.20;;;;;;5056463;28;20067;-56
2021/12/04 04:05:05;;;;;;;40.78;17.05;;;51.80;1715.20;;;;;;5055941;28;20421;-56
2021/12/04 04:07:30;;;;;;;39.70;17.35;;;51.50;1740.80;;;;;;5056833;28;20025;-56
2021/12/04 04:09:56;;;;;;;36.30;17.85;;;51.30;1792.00;;;;;;5076076;28;20363;-56
2021/12/04 04:12:22;;;;;;;39.70;16.25;;;51.20;1817.60;;;;;;5075472;28;20060;-55
2021/12/04 04:14:48;;;;;;;38.92;16.85;;;26.50;1766.40;;;;;;5074758;28;20118;-55
2021/12/04 04:17:13;;;;;;;37.85;17.95;;;26.50;1792.00;;;;;;5076129;28;20017;-55
2021/12/04 04:19:39;;;;;;;38.13;17.67;;;26.50;1792.00;;;;;;5076202;28;20354;-56
2021/12/04 04:22:06;;;;;;;31.60;16.63;;;26.50;1766.40;;;;;;5076090;28;20043;-56
2021/12/04 04:24:33;;;;;;;41.00;16.90;;;26.40;1792.00;;;;;;5075725;28;20017;-56
2021/12/04 04:26:59;;;;;;;43.45;20.42;;;26.30;1792.00;;;;;;5075649;28;20048;-56
2021/12/04 04:29:25;;;;;;;43.28;20.33;;;26.40;1843.20;;;;;;5075884;28;20044;-56
2021/12/04 04:31:54;;;;;;;43.78;19.02;;;26.50;1920.00;;;;;;5075549;28;20748;-56
2021/12/04 04:34:28;;;;;;;42.88;21.40;;;51.30;1945.60;;;;;;5075516;28;20437;-56
2021/12/04 04:39:56;;;;;;;63.05;26.33;;;51.40;1945.60;;;;;;5075735;28;20375;-59
2021/12/04 05:14:38;;;;;;;68.25;31.90;;;51.60;1945.60;;;;;;5075128;28;20462;-57
2021/12/04 05:17:08;;;;;;;66.13;30.73;;;51.70;1945.60;;;;;;5074669;28;20558;-56
2021/12/04 05:19:44;;;;;;;103.35;45.33;;;51.70;1945.60;;;;;;5074780;28;20104;-56
2021/12/04 05:22:12;;;;;;;113.78;49.33;;;51.70;1945.60;;;;;;5074733;28;20078;-56
2021/12/04 05:24:39;;;;;;;91.47;42.35;;;51.60;1945.60;;;;;;5074412;28;20047;-56
2021/12/04 05:27:06;;;;;;;87.03;38.47;;;51.70;1920.00;;;;;;5074575;28;20024;-56
2021/12/04 05:29:32;;;;;;;80.22;37.03;;;51.70;1945.60;;;;;;5075218;28;20104;-57
2021/12/04 05:31:57;;;;;;;81.90;40.88;;;51.70;1920.00;;;;;;5074490;28;20119;-55
2021/12/04 05:34:23;;;;;;;216.63;91.03;;;51.70;1945.60;;;;;;5074654;28;20028;-55
2021/12/04 05:36:49;;;;;;;246.82;106.90;;;51.70;1945.60;;;;;;5074543;28;20032;-56
2021/12/04 05:39:15;;;;;;;195.05;83.93;;;51.70;1920.00;;;;;;5074202;28;20021;-56
2021/12/04 05:41:41;;;;;;;141.52;64.40;;;51.80;1920.00;;;;;;5074132;28;20028;-56
2021/12/04 05:44:09;;;;;;;138.60;61.33;;;51.80;1920.00;;;;;;5074149;28;20029;-57
2021/12/04 05:46:39;;;;;;;138.70;62.72;;;51.80;1894.40;;;;;;5074380;28;20039;-55
2021/12/04 05:49:15;;;;;;;147.15;70.85;;;51.80;1920.00;;;;;;5074488;28;20035;-56
2021/12/04 05:57:03;;;;;;;163.85;70.85;;;51.80;1920.00;;;;;;5074175;28;20474;-56
2021/12/04 05:59:29;;;;;;;165.60;73.35;;;51.80;1920.00;;;;;;5073917;28;20376;-56
2021/12/04 06:01:55;;;;;;;161.27;71.95;;;51.80;1920.00;;;;;;5073860;28;20032;-56
2021/12/04 06:04:21;;;;;;;157.82;71.15;;;51.80;1920.00;;;;;;5074552;28;20028;-56
2021/12/04 06:06:47;;;;;;;155.93;67.30;;;51.80;1920.00;;;;;;5055671;28;20112;-56
2021/12/04 06:09:13;;;;;;;142.70;64.65;;;51.90;1894.40;;;;;;5073765;28;20048;-56
2021/12/04 06:11:39;;;;;;;138.30;60.35;;;51.90;1894.40;;;;;;5073702;28;20052;-57
2021/12/04 06:14:05;;;;;;;122.85;57.10;;;51.90;1894.40;;;;;;5074003;28;20048;-55
2021/12/04 06:16:31;;;;;;;126.03;55.15;;;51.90;1894.40;;;;;;5073787;28;20082;-55
2021/12/04 06:18:59;;;;;;;121.43;55.10;;;52.00;1894.40;;;;;;5073970;28;20021;-57
2021/12/04 06:24:09;;;;;;;193.13;86.23;;;52.00;1868.80;;;;;;5073822;28;20424;-56
2021/12/04 06:26:36;;;;;;;230.98;98.05;;;52.00;1894.40;;;;;;5073609;28;20029;-56
2021/12/04 06:29:03;;;;;;;249.43;103.07;;;52.00;1868.80;;;;;;5073817;28;20533;-56
2021/12/04 06:31:31;;;;;;;241.38;101.90;;;52.10;1894.40;;;;;;5073685;28;20039;-55
2021/12/04 06:33:57;;;;;;;226.93;98.28;;;52.00;1868.80;;;;;;5073545;28;20032;-56
2021/12/04 06:36:25;;;;;;;209.90;90.30;;;52.00;1894.40;;;;;;5073860;28;20413;-57
2021/12/04 06:38:51;;;;;;;186.02;81.18;;;52.00;1894.40;;;;;;5073516;28;20447;-56
2021/12/04 06:41:17;;;;;;;171.75;77.53;;;51.90;1920.00;;;;;;5073400;28;20039;-56
2021/12/04 06:43:47;;;;;;;153.75;73.43;;;51.90;1920.00;;;;;;5073520;28;20025;-55
2021/12/04 06:46:16;;;;;;;155.85;75.50;;;51.90;1920.00;;;;;;5055521;28;20047;-57
2021/12/04 06:48:44;;;;;;;169.35;82.13;;;51.90;1920.00;;;;;;5073333;28;20069;-56
2021/12/04 06:51:24;;;;;;;161.10;82.78;;;51.90;1945.60;;;;;;5073352;28;20046;-56
2021/12/04 06:54:04;;;;;;;143.98;74.50;;;52.00;1945.60;;;;;;5073420;28;20469;-56
2021/12/04 06:56:39;;;;;;;186.25;88.03;;;52.00;1945.60;;;;;;5073443;28;20028;-56
2021/12/04 06:59:16;;;;;;;205.35;89.97;;;52.00;1945.60;;;;;;5073516;28;20032;-56
2021/12/04 07:01:42;;;;;;;183.65;81.78;;;52.00;1971.20;;;;;;5073501;28;20028;-56
2021/12/04 07:04:08;;;;;;;141.30;67.80;;;52.00;1971.20;;;;;;5073332;28;20378;-56
2021/12/04 07:06:36;;;;;;;142.45;67.07;;;52.10;1971.20;;;;;;5055612;28;20107;-56
2021/12/04 07:09:03;;;;;;;130.65;63.28;;;52.10;1971.20;;;;;;5073043;28;20058;-56
2021/12/04 07:11:29;;;;;;;108.57;53.33;;;52.10;1971.20;;;;;;5073289;28;20033;-56
2021/12/04 07:13:55;;;;;;;102.45;49.97;;;76.80;1971.20;;;;;;5073332;28;20047;-55
2021/12/04 07:16:22;;;;;;;104.35;48.95;;;76.80;1971.20;;;;;;5073441;28;20185;-57
2021/12/04 07:18:48;;;;;;;77.10;42.70;;;76.80;1971.20;;;;;;5076456;28;20028;-55
2021/12/04 07:21:18;;;;;;;71.60;38.28;;;76.90;1971.20;;;;;;5077211;28;20370;-56
2021/12/04 07:23:44;;;;;;;79.85;40.33;;;76.90;1971.20;;;;;;5076896;28;20527;-55
2021/12/04 07:26:10;;;;;;;86.18;43.78;;;77.00;1971.20;;;;;;5076947;28;20032;-56
2021/12/04 07:28:37;;;;;;;104.45;49.20;;;77.00;1971.20;;;;;;5077176;28;20458;-56
2021/12/04 07:31:03;;;;;;;108.80;52.20;;;77.00;1996.80;;;;;;5076947;28;20039;-57
2021/12/04 07:33:29;;;;;;;73.97;37.08;;;77.10;1971.20;;;;;;5077156;28;20016;-55
2021/12/04 07:35:57;;;;;;;66.40;32.78;;;77.20;1945.60;;;;;;5076879;28;20457;-56
2021/12/04 07:38:23;;;;;;;59.92;30.90;;;77.30;1945.60;;;;;;5076797;28;20100;-56
2021/12/04 07:40:49;;;;;;;71.00;32.25;;;77.30;1971.20;;;;;;5076552;28;20071;-57
2021/12/04 07:43:15;;;;;;;78.35;34.78;;;77.40;1945.60;;;;;;5076852;28;20052;-57
2021/12/04 07:45:41;;;;;;;75.35;30.13;;;77.50;1945.60;;;;;;5076373;28;20472;-57
2021/12/04 07:48:07;;;;;;;88.18;34.90;;;77.50;1945.60;;;;;;5076259;28;20111;-57
2021/12/04 07:50:33;;;;;;;66.72;28.58;;;77.60;1945.60;;;;;;5076599;28;20355;-56
2021/12/04 07:52:58;;;;;;;49.33;21.85;;;77.60;1945.60;;;;;;5076491;28;20034;-58
2021/12/04 07:55:26;;;;;;;46.28;21.08;;;77.70;1920.00;;;;;;5076760;28;20086;-56
2021/12/04 07:57:52;;;;;;;45.95;21.10;;;77.70;1920.00;;;;;;5076158;28;20024;-56
2021/12/04 08:00:20;;;;;;;39.25;18.27;;;77.70;1920.00;;;;;;5058391;28;20389;-55
2021/12/04 08:02:48;;;;;;;33.33;18.00;;;102.40;1920.00;;;;;;5076439;28;20094;-55
2021/12/04 08:05:14;;;;;;;44.45;21.05;;;102.50;1894.40;;;;;;5076176;28;20028;-57
2021/12/04 08:07:40;;;;;;;40.05;20.85;;;102.60;1894.40;;;;;;5076065;28;20029;-56
2021/12/04 08:10:08;;;;;;;38.70;19.13;;;102.70;1894.40;;;;;;5076023;28;20035;-56
2021/12/04 08:12:35;;;;;;;33.85;18.08;;;102.60;1894.40;;;;;;5075762;28;20025;-56
2021/12/04 08:15:03;;;;;;;33.42;17.60;;;102.70;1894.40;;;;;;5075948;28;20025;-56
2021/12/04 08:17:29;;;;;;;38.38;20.35;;;102.80;1894.40;;;;;;5076007;28;20428;-57
2021/12/04 08:19:55;;;;;;;42.42;23.17;;;102.80;1894.40;;;;;;5076098;28;20028;-55
2021/12/04 08:22:20;;;;;;;41.70;21.15;;;102.90;1868.80;;;;;;5076077;28;20027;-56
2021/12/04 08:24:47;;;;;;;85.53;48.90;;;103.00;1920.00;;;;;;5076003;28;20043;-56
2021/12/04 08:27:14;;;;;;;55.60;34.15;;;103.00;1894.40;;;;;;5075706;28;20024;-56
2021/12/04 08:29:40;;;;;;;55.13;32.40;;;103.20;2150.40;;;;;;5074799;28;20031;-56
2021/12/04 08:32:07;;;;;;;56.33;30.40;;;128.00;2073.60;;;;;;5075686;28;20119;-56
2021/12/04 08:34:34;;;;;;;55.65;25.90;;;128.10;1996.80;;;;;;5075559;28;20059;-56
2021/12/04 08:36:59;;;;;;;42.55;22.77;;;128.50;2227.20;;;;;;5075811;28;20056;-56
2021/12/04 08:39:25;;;;;;;26.58;16.67;;;128.40;2022.40;;;;;;5056778;28;20063;-56
2021/12/04 08:41:51;;;;;;;32.40;16.45;;;128.50;1945.60;;;;;;5075521;28;20036;-56
2021/12/04 08:44:19;;;;;;;36.45;17.85;;;128.50;1894.40;;;;;;5075722;28;20035;-56
2021/12/04 08:46:45;;;;;;;25.40;16.08;;;128.50;1920.00;;;;;;5075587;28;20484;-56
2021/12/04 08:49:11;;;;;;;23.88;13.70;;;128.60;1894.40;;;;;;5075373;28;20077;-56
2021/12/04 08:51:37;;;;;;;30.65;15.20;;;128.60;1868.80;;;;;;5056729;28;20478;-56
2021/12/04 08:54:04;;;;;;;30.33;14.27;;;128.70;1868.80;;;;;;5075383;28;20031;-56
2021/12/04 08:56:30;;;;;;;26.88;14.50;;;128.70;1868.80;;;;;;5075267;28;20078;-57
2021/12/04 08:58:56;;;;;;;45.38;17.65;;;128.70;1894.40;;;;;;5075449;28;20093;-56
2021/12/04 09:01:25;;;;;;;35.05;15.10;;;128.70;1843.20;;;;;;5075137;28;20488;-56
2021/12/04 09:04:13;;;;;;;30.70;15.80;;;128.80;1868.80;;;;;;5056555;28;20036;-56
2021/12/04 09:06:40;;;;;;;27.40;14.75;;;128.80;1843.20;;;;;;5074901;28;20024;-56
2021/12/04 09:09:08;;;;;;;33.90;15.30;;;128.90;1894.40;;;;;;5074868;28;20110;-56
2021/12/04 09:11:50;;;;;;;30.92;16.38;;;128.90;1894.40;;;;;;5075341;28;20406;-56
2021/12/04 09:14:19;;;;;;;29.08;14.65;;;153.60;1843.20;;;;;;5075237;28;20107;-56
2021/12/04 09:16:45;;;;;;;30.10;15.48;;;153.60;1843.20;;;;;;5074999;28;20054;-56
2021/12/04 09:19:11;;;;;;;30.35;14.15;;;153.70;1843.20;;;;;;5056500;28;20028;-56
2021/12/04 09:21:38;;;;;;;23.33;13.30;;;153.70;1817.60;;;;;;5075030;28;20029;-56
2021/12/04 09:24:09;;;;;;;26.67;14.77;;;153.70;1843.20;;;;;;5074959;28;20023;-56
2021/12/04 09:26:57;;;;;;;25.13;13.27;;;153.70;1817.60;;;;;;5074574;28;20029;-56
2021/12/04 10:04:20;;;;;;;27.95;12.15;;;154.40;1792.00;;;;;;5074015;28;20024;-56
2021/12/04 10:20:37;;;;;;;24.50;10.85;;;179.30;1766.40;;;;;;5073904;28;20075;-56
2021/12/04 10:33:44;;;;;;;71.03;27.08;;;179.50;1740.80;;;;;;5074014;28;20024;-56
2021/12/04 10:36:11;;;;;;;46.90;21.50;;;179.50;1766.40;;;;;;5073486;28;20115;-56
2021/12/04 10:38:44;;;;;;;36.85;17.25;;;179.60;1766.40;;;;;;5073533;28;20441;-56
2021/12/04 10:41:12;;;;;;;26.58;14.32;;;179.70;1766.40;;;;;;5073569;28;20044;-56
2021/12/04 10:43:38;;;;;;;25.90;12.98;;;179.80;1715.20;;;;;;5073658;28;20462;-57
2021/12/04 10:46:15;;;;;;;27.75;13.98;;;179.80;1689.60;;;;;;5073627;28;20035;-56
2021/12/04 10:48:57;;;;;;;26.23;11.70;;;179.90;1689.60;;;;;;5073559;28;20052;-56
2021/12/04 10:51:32;;;;;;;23.00;11.27;;;179.90;1689.60;;;;;;5073372;28;20063;-56
2021/12/04 10:54:04;;;;;;;21.45;11.13;;;180.00;1664.00;;;;;;5076655;28;20036;-56
2021/12/04 10:56:50;;;;;;;17.13;10.55;;;180.00;1715.20;;;;;;5077509;28;20037;-56
2021/12/04 11:04:48;;;;;;;27.17;13.60;;;204.80;1664.00;;;;;;5077618;28;20099;-56
2021/12/04 11:43:04;;;;;;;30.73;16.85;;;205.30;1587.20;;;;;;4995533;28;20385;-56
2021/12/04 11:46:00;;;;;;;26.02;15.55;;;205.30;1587.20;;;;;;4995406;28;20030;-56
2021/12/04 11:48:41;;;;;;;21.83;13.20;;;205.40;1587.20;;;;;;4995485;28;20038;-56
2021/12/04 11:51:19;;;;;;;32.40;13.65;;;205.40;1561.60;;;;;;4995532;28;20062;-57
2021/12/04 11:53:46;;;;;;;20.48;12.73;;;205.40;1561.60;;;;;;4995250;28;20030;-56
2021/12/04 11:56:17;;;;;;;28.98;14.50;;;205.40;1561.60;;;;;;4995149;28;20038;-57
2021/12/04 11:58:46;;;;;;;32.78;16.85;;;205.40;1561.60;;;;;;4995261;28;20034;-56
2021/12/04 12:01:22;;;;;;;26.65;14.98;;;205.40;1561.60;;;;;;4995032;28;20031;-57
2021/12/04 12:03:56;;;;;;;22.27;13.38;;;205.40;1561.60;;;;;;4995008;28;20038;-57
2021/12/04 12:06:47;;;;;;;21.13;12.40;;;205.40;1561.60;;;;;;4995160;28;20018;-56
2021/12/04 12:09:17;;;;;;;25.77;13.43;;;205.40;1561.60;;;;;;4993686;28;20054;-57
2021/12/04 12:11:55;;;;;;;21.38;11.82;;;205.40;1561.60;;;;;;5076094;28;20101;-56
2021/12/04 12:14:37;;;;;;;16.15;10.68;;;205.40;1561.60;;;;;;5076242;28;20035;-56
2021/12/04 12:17:03;;;;;;;18.17;10.68;;;205.40;1536.00;;;;;;5076132;28;20040;-56
2021/12/04 12:19:41;;;;;;;19.92;10.88;;;205.40;1536.00;;;;;;5075986;28;20052;-57
2021/12/04 12:22:24;;;;;;;24.55;11.70;;;205.40;1536.00;;;;;;5076399;28;20490;-56
2021/12/04 12:32:47;;;;;;;20.98;11.85;;;205.40;1561.60;;;;;;5076306;28;20179;-56
2021/12/04 12:38:34;;;;;;;;;;;205.40;1561.60;;;;;;5076248;28;20548;-56
2021/12/04 12:41:11;;;;;;;25.55;11.70;;;205.40;1561.60;;;;;;5075731;28;19910;-57
2021/12/04 12:44:00;;;;;;;22.58;13.05;;;205.50;1561.60;;;;;;5075689;28;20025;-57
2021/12/04 12:46:44;;;;;;;25.90;15.43;;;205.50;1561.60;;;;;;4994232;28;20153;-56
2021/12/04 12:49:36;;;;;;;26.10;13.77;;;205.50;1587.20;;;;;;4994275;28;20026;-56
2021/12/04 12:52:06;;;;;;;27.38;13.95;;;205.40;1587.20;;;;;;4994517;28;20046;-56
2021/12/04 12:54:51;;;;;;;23.45;13.63;;;205.50;1561.60;;;;;;4994333;28;20026;-56
2021/12/04 12:57:23;;;;;;;22.58;13.30;;;205.40;1561.60;;;;;;4994012;28;20046;-57
2021/12/04 13:14:31;;;;;;;26.17;15.40;;;205.40;1587.20;;;;;;4935967;29;20131;-57
2021/12/04 13:17:07;;;;;;;29.17;16.05;;;205.40;1587.20;;;;;;4934994;29;20042;-56
2021/12/04 13:19:37;;;;;;;28.73;14.95;;;205.40;1587.20;;;;;;4935745;29;20117;-56
2021/12/04 13:22:13;;;;;;;26.40;14.57;;;205.30;1587.20;;;;;;4935733;29;20525;-56
2021/12/04 13:24:42;;;;;;;26.92;15.38;;;205.40;1587.20;;;;;;4992640;28;20053;-56
2021/12/04 13:29:50;;;;;;;31.83;17.92;;;205.40;1587.20;;;;;;4993304;28;20033;-56
2021/12/04 13:32:25;;;;;;;31.42;17.48;;;205.30;1587.20;;;;;;4993241;28;20035;-57
2021/12/04 13:34:51;;;;;;;29.65;16.80;;;205.30;1587.20;;;;;;4993420;28;20401;-56
2021/12/04 13:37:25;;;;;;;34.20;16.50;;;205.30;1587.20;;;;;;4993392;28;20169;-56
2021/12/04 13:39:59;;;;;;;24.85;13.45;;;205.30;1587.20;;;;;;4993390;28;20033;-56
2021/12/04 13:42:25;;;;;;;21.45;12.70;;;205.30;1561.60;;;;;;4992669;28;20472;-56
2021/12/04 13:44:57;;;;;;;19.35;11.70;;;205.30;1561.60;;;;;;4993167;28;20041;-56
2021/12/04 13:47:24;;;;;;;20.10;11.95;;;205.30;1561.60;;;;;;4993232;28;20408;-56
2021/12/04 13:50:00;;;;;;;23.25;12.38;;;205.30;1561.60;;;;;;5030941;28;20040;-57
2021/12/04 13:52:31;;;;;;;25.10;15.13;;;205.30;1561.60;;;;;;5074291;28;20057;-56
2021/12/04 13:55:03;;;;;;;30.73;17.10;;;205.30;1561.60;;;;;;5074380;28;20033;-56
2021/12/04 13:57:29;;;;;;;25.17;15.13;;;205.30;1561.60;;;;;;5074434;28;20020;-56
2021/12/04 14:00:03;;;;;;;23.70;14.40;;;205.30;1561.60;;;;;;5074213;28;20086;-56
2021/12/04 14:02:30;;;;;;;;;;;205.20;1561.60;;;;;;5074709;28;20031;-56
2021/12/04 14:05:03;;;;;;;26.23;14.20;;;205.20;1561.60;;;;;;5074102;28;19904;-56
2021/12/04 14:07:29;;;;;;;28.00;14.57;;;205.20;1561.60;;;;;;5073665;28;20462;-56
2021/12/04 14:09:55;;;;;;;28.17;14.82;;;205.20;1561.60;;;;;;5056045;28;20115;-56
2021/12/04 14:12:21;;;;;;;28.35;16.17;;;205.20;1561.60;;;;;;5073605;28;20490;-56
2021/12/04 14:14:48;;;;;;;33.58;17.27;;;205.20;1561.60;;;;;;5073950;28;20470;-57
2021/12/04 14:17:17;;;;;;;32.13;18.08;;;205.10;1587.20;;;;;;5073547;28;20115;-57
2021/12/04 14:19:43;;;;;;;44.80;20.90;;;205.10;1587.20;;;;;;5073600;28;20052;-56
2021/12/04 14:22:18;;;;;;;42.60;20.63;;;205.10;1587.20;;;;;;5073757;28;20458;-56
2021/12/04 14:24:48;;;;;;;36.30;19.83;;;205.10;1587.20;;;;;;5073953;28;20036;-57
2021/12/04 14:27:28;;;;;;;30.88;18.75;;;205.10;1587.20;;;;;;5073794;28;20029;-56
2021/12/04 14:30:15;;;;;;;32.35;17.50;;;205.10;1587.20;;;;;;5073710;28;20029;-56
2021/12/04 14:32:43;;;;;;;24.83;15.38;;;205.10;1587.20;;;;;;5073978;28;20036;-56
2021/12/04 14:35:15;;;;;;;25.70;14.25;;;205.10;1587.20;;;;;;5073900;28;20017;-57
2021/12/04 14:37:44;;;;;;;37.40;13.27;;;205.00;1587.20;;;;;;5073625;28;20501;-56
2021/12/04 14:40:13;;;;;;;39.97;13.80;;;205.00;1587.20;;;;;;5075655;28;20377;-56
2021/12/04 14:42:40;;;;;;;28.17;14.13;;;205.00;1612.80;;;;;;5081785;28;20063;-57
2021/12/04 14:45:20;;;;;;;33.72;15.80;;;205.00;1612.80;;;;;;5080403;28;20048;-56
2021/12/04 14:48:09;;;;;;;31.27;16.45;;;204.80;1612.80;;;;;;5066952;28;20470;-56
2021/12/04 14:50:39;;;;;;;28.45;16.60;;;204.80;1612.80;;;;;;5044663;28;20047;-56
2021/12/04 14:53:07;;;;;;;34.70;17.92;;;180.10;1612.80;;;;;;5062706;28;20020;-56
2021/12/04 14:55:37;;;;;;;47.17;18.98;;;180.00;1638.40;;;;;;5045262;28;20037;-56
2021/12/04 14:58:13;;;;;;;38.33;18.65;;;179.90;1638.40;;;;;;5080094;28;20730;-56
2021/12/04 15:01:08;;;;;;;33.30;18.27;;;179.90;1638.40;;;;;;5068341;28;20370;-56
2021/12/04 15:03:41;;;;;;;38.63;20.42;;;179.80;1664.00;;;;;;5068791;28;20028;-56
2021/12/04 15:06:11;;;;;;;42.03;21.88;;;179.70;1638.40;;;;;;5061116;28;20029;-56
2021/12/04 15:08:41;;;;;;;43.10;20.98;;;179.70;1638.40;;;;;;5081512;28;20036;-56
2021/12/04 15:11:14;;;;;;;35.90;18.23;;;179.50;1664.00;;;;;;5080483;28;20446;-56
2021/12/04 15:13:51;;;;;;;44.30;20.48;;;179.40;1664.00;;;;;;5060636;28;20021;-56
2021/12/04 15:16:24;;;;;;;46.22;24.48;;;179.30;1689.60;;;;;;5077095;28;20099;-56
2021/12/04 15:18:49;;;;;;;47.20;24.98;;;179.30;1689.60;;;;;;5079551;28;20012;-56
2021/12/04 15:21:18;;;;;;;49.20;25.13;;;179.30;1715.20;;;;;;5081518;28;20485;-56
2021/12/04 15:23:52;;;;;;;44.83;24.80;;;179.30;1740.80;;;;;;5080740;28;20059;-56
2021/12/04 15:26:20;;;;;;;40.22;25.38;;;179.30;1766.40;;;;;;5059382;28;20100;-56
2021/12/04 15:28:55;;;;;;;42.70;24.65;;;179.30;1766.40;;;;;;5060325;28;20044;-56